YWKM weather

Wyalkatchem Airport
Wyalkatchem, Western Australia, Australia

Public forecast

Using degrees Celsius for public forecast. Weather courtesy of forecast.io.

METAR (pilot weather report)

Closest report is RAAF Base Pearce, 75.2 nm (139.4 km) WSW. Retrieved 2019/03/20 02:30 UTC (19 minutes ago):

YPEA 200230Z 29005KT 250V350 CAVOK 29/18 Q1011 NOSIG

TAF (pilot weather forecast)

Forecast is more than 6 hours old.

Closest forecast is RAAF Base Pearce, 75.2 nm (139.4 km) WSW. Retrieved 2019/03/19 18:00 UTC (9 hours ago):

TAF YPEA 191632Z 1918/2012 VRB03KT 9999 BKN005 FM200000 15005KT CAVOK FM200500 24010KT CAVOK PROB30 1918/1923 0500 FG